Time;durP1;ratioP1;P1;durP2;ratioP2;P2;SDS_P1;SDS_P2;PMS_P1;PMS_P2;Temp;Humidity;BMP_temperature;BMP_pressure;BME280_temperature;BME280_humidity;BME280_pressure;Samples;Min_cycle;Max_cycle;Signal;HPM_P1;HPM_P2
2022/11/17 00:02:23;;;;;;;;;;;;;;;4.69;80.56;101065.63;4853907;29;5006;-81
2022/11/17 00:04:49;;;;;;;;;;;;;;;4.65;80.70;101064.31;4861406;29;4811;-79
2022/11/17 00:07:16;;;;;;;;;;;;;;;4.68;80.49;101055.97;4861912;29;4666;-78
2022/11/17 00:09:43;;;;;;;;;;;;;;;4.65;80.70;101058.97;4842909;29;4602;-79
2022/11/17 00:14:54;;;;;;;;;;;;;;;4.65;80.55;101050.13;4861457;29;4973;-79
2022/11/17 00:17:20;;;;;;;;;;;;;;;4.65;80.56;101052.81;4863540;29;4835;-80
2022/11/17 00:22:31;;;;;;;;;;;;;;;4.68;80.69;101052.47;4863920;29;4924;-80
2022/11/17 00:24:58;;;;;;;;;;;;;;;4.67;80.52;101048.94;4843145;29;4718;-79
2022/11/17 00:27:25;;;;;;;;;;;;;;;4.68;80.44;101044.47;4842239;29;4669;-78
2022/11/17 00:29:51;;;;;;;;;;;;;;;4.66;80.65;101046.47;4860906;29;4879;-79
2022/11/17 00:35:02;;;;;;;;;;;;;;;4.63;80.66;101039.63;4863751;29;4894;-80
2022/11/17 00:37:29;;;;;;;;;;;;;;;4.64;80.50;101033.28;4864284;29;4688;-79
2022/11/17 00:39:55;;;;;;;;;;;;;;;4.64;80.49;101035.94;4857969;29;4794;-78
2022/11/17 00:42:22;;;;;;;;;;;;;;;4.65;80.61;101036.78;4861058;29;4655;-79
2022/11/17 00:44:49;;;;;;;;;;;;;;;4.63;80.55;101036.13;4862181;29;4764;-80
2022/11/17 00:47:15;;;;;;;;;;;;;;;4.64;80.51;101038.59;4840250;29;4689;-79
2022/11/17 00:49:42;;;;;;;;;;;;;;;4.66;80.42;101033.94;4855693;29;5038;-78
2022/11/17 00:52:08;;;;;;;;;;;;;;;4.67;80.50;101027.59;4862674;29;4714;-79
2022/11/17 00:54:35;;;;;;;;;;;;;;;4.68;80.47;101028.44;4846801;29;4795;-80
2022/11/17 00:57:01;;;;;;;;;;;;;;;4.68;80.50;101026.63;4858661;29;4898;-79
2022/11/17 00:59:28;;;;;;;;;;;;;;;4.72;80.14;101032.44;4861472;29;4867;-79
2022/11/17 01:01:55;;;;;;;;;;;;;;;4.72;80.28;101033.25;4847444;29;4772;-78
2022/11/17 01:04:21;;;;;;;;;;;;;;;4.71;80.13;101031.59;4863080;29;4804;-79
2022/11/17 01:06:48;;;;;;;;;;;;;;;4.72;80.33;101021.75;4864315;29;4774;-79
2022/11/17 01:09:14;;;;;;;;;;;;;;;4.70;80.06;101029.09;4846730;29;4820;-79
2022/11/17 01:11:41;;;;;;;;;;;;;;;4.78;80.17;101032.59;4862321;29;4661;-79
2022/11/17 01:14:07;;;;;;;;;;;;;;;4.72;80.27;101035.09;4860344;29;4686;-77
2022/11/17 01:16:34;;;;;;;;;;;;;;;4.71;80.25;101034.28;4841746;29;4818;-78
2022/11/17 01:19:00;;;;;;;;;;;;;;;4.71;80.22;101031.59;4858581;29;4995;-79
2022/11/17 01:21:27;;;;;;;;;;;;;;;4.73;80.11;101032.25;4855116;29;4776;-79
2022/11/17 01:23:53;;;;;;;;;;;;;;;4.72;80.52;101029.78;4865199;29;4801;-80
2022/11/17 01:26:20;;;;;;;;;;;;;;;4.72;80.19;101027.94;4846944;29;4748;-80
2022/11/17 01:28:47;;;;;;;;;;;;;;;4.75;79.99;101027.59;4845846;29;4814;-79
2022/11/17 01:31:13;;;;;;;;;;;;;;;4.74;80.07;101017.94;4860434;29;4867;-82
2022/11/17 01:33:40;;;;;;;;;;;;;;;4.84;79.71;101008.88;4846639;29;4867;-78
2022/11/17 01:36:06;;;;;;;;;;;;;;;4.80;79.80;101008.41;4845813;29;4935;-78
2022/11/17 01:38:33;;;;;;;;;;;;;;;4.79;79.93;101006.72;4843506;29;4776;-79
2022/11/17 01:41:00;;;;;;;;;;;;;;;4.79;80.16;101006.72;4863160;29;4812;-79
2022/11/17 01:43:26;;;;;;;;;;;;;;;4.77;79.99;101003.41;4844123;29;4937;-79
2022/11/17 01:45:53;;;;;;;;;;;;;;;4.79;80.01;101006.72;4862008;29;4650;-79
2022/11/17 01:48:19;;;;;;;;;;;;;;;4.80;79.87;101002.25;4844129;29;4718;-79
2022/11/17 01:50:48;;;;;;;;;;;;;;;4.78;80.12;100997.88;4837711;29;4701;-81
2022/11/17 01:53:14;;;;;;;;;;;;;;;4.80;79.88;101000.41;4843176;29;4764;-80
2022/11/17 01:55:41;;;;;;;;;;;;;;;4.82;79.98;100998.38;4863187;29;4687;-79
2022/11/17 01:58:07;;;;;;;;;;;;;;;4.80;79.94;100995.06;4839478;29;4728;-79
2022/11/17 02:00:34;;;;;;;;;;;;;;;4.31;80.05;100918.63;4848478;29;4554;-80
2022/11/17 02:03:00;;;;;;;;;;;;;;;4.78;80.38;100992.56;4842635;29;4662;-78
2022/11/17 02:05:27;;;;;;;;;;;;;;;4.81;80.16;100996.72;4860872;29;4651;-80
2022/11/17 02:07:53;;;;;;;;;;;;;;;4.82;79.98;100989.53;4838323;29;4778;-79
2022/11/17 02:10:20;;;;;;;;;;;;;;;4.80;79.86;100995.06;4859890;29;4872;-79
2022/11/17 02:12:47;;;;;;;;;;;;;;;4.80;80.26;100989.72;4845623;29;5102;-79
2022/11/17 02:15:13;;;;;;;;;;;;;;;4.81;79.77;100988.72;4843134;29;4790;-79
2022/11/17 02:17:40;;;;;;;;;;;;;;;4.87;79.73;100995.19;4856585;29;4851;-79
2022/11/17 02:20:06;;;;;;;;;;;;;;;4.79;80.09;100996.03;4839776;29;4929;-79
2022/11/17 02:22:34;;;;;;;;;;;;;;;4.77;80.09;100988.22;4836224;29;4749;-79
2022/11/17 02:25:00;;;;;;;;;;;;;;;4.76;80.16;100983.91;4846757;29;4829;-79
2022/11/17 02:27:27;;;;;;;;;;;;;;;4.76;80.02;100983.03;4850967;29;4561;-80
2022/11/17 02:29:53;;;;;;;;;;;;;;;4.77;79.72;100988.22;4833733;29;4457;-79
2022/11/17 02:32:20;;;;;;;;;;;;;;;4.76;80.21;100981.25;4850086;29;4404;-80
2022/11/17 02:34:46;;;;;;;;;;;;;;;4.77;79.93;100982.88;4851660;29;4618;-80
2022/11/17 02:37:13;;;;;;;;;;;;;;;4.78;80.04;100979.22;4831064;29;4758;-79
2022/11/17 02:39:39;;;;;;;;;;;;;;;4.82;79.90;100982.34;4830356;29;4847;-79
2022/11/17 02:42:06;;;;;;;;;;;;;;;4.81;79.81;100982.56;4856112;29;4769;-79
2022/11/17 02:44:31;;;;;;;;;;;;;;;4.78;79.92;100979.22;4850181;29;4878;-80
2022/11/17 02:46:58;;;;;;;;;;;;;;;4.77;80.06;100979.41;4834326;29;4555;-79
2022/11/17 02:49:24;;;;;;;;;;;;;;;4.70;80.18;100963.22;4847227;29;4672;-78
2022/11/17 02:51:51;;;;;;;;;;;;;;;4.75;80.08;100974.22;4830879;29;4527;-79
2022/11/17 02:54:17;;;;;;;;;;;;;;;4.73;80.07;100970.88;4845992;29;4819;-80
2022/11/17 02:56:44;;;;;;;;;;;;;;;4.74;80.01;100964.56;4851657;29;4801;-80
2022/11/17 02:59:11;;;;;;;;;;;;;;;4.80;80.04;100973.72;4849354;29;4625;-79
2022/11/17 03:01:37;;;;;;;;;;;;;;;4.75;80.01;100968.88;4848449;29;4638;-79
2022/11/17 03:04:04;;;;;;;;;;;;;;;4.75;80.09;100971.53;4832799;29;4702;-79
2022/11/17 03:06:30;;;;;;;;;;;;;;;4.77;80.04;100972.22;4848151;29;4636;-78
2022/11/17 03:08:57;;;;;;;;;;;;;;;4.74;80.07;100969.88;4848245;29;4817;-80
2022/11/17 03:11:23;;;;;;;;;;;;;;;4.75;80.17;100963.53;4830104;29;4849;-80
2022/11/17 03:13:50;;;;;;;;;;;;;;;4.74;80.10;100964.56;4852407;29;4463;-78
2022/11/17 03:16:16;;;;;;;;;;;;;;;4.72;80.21;100966.56;4854770;29;4846;-80
2022/11/17 03:18:43;;;;;;;;;;;;;;;4.73;80.25;100962.03;4846113;29;4839;-79
2022/11/17 03:21:10;;;;;;;;;;;;;;;4.74;80.25;100961.88;4831218;29;4727;-79
2022/11/17 03:23:36;;;;;;;;;;;;;;;4.74;80.31;100953.06;4848002;29;4748;-78
2022/11/17 03:26:03;;;;;;;;;;;;;;;4.72;80.23;100953.22;4847553;29;4612;-79
2022/11/17 03:28:29;;;;;;;;;;;;;;;4.70;80.34;100949.88;4835904;29;4853;-79
2022/11/17 03:30:56;;;;;;;;;;;;;;;4.70;80.34;100944.53;4848260;29;5269;-79
2022/11/17 03:33:22;;;;;;;;;;;;;;;4.73;80.03;100946.84;4843050;29;4806;-79
2022/11/17 03:35:49;;;;;;;;;;;;;;;4.70;80.16;100944.53;4850147;29;4614;-79
2022/11/17 03:38:15;;;;;;;;;;;;;;;4.70;80.22;100949.03;4829548;29;4825;-79
2022/11/17 03:40:42;;;;;;;;;;;;;;;4.69;80.21;100942.88;4836776;29;4931;-80
2022/11/17 03:43:08;;;;;;;;;;;;;;;4.70;80.27;100949.03;4852649;29;4643;-79
2022/11/17 03:45:35;;;;;;;;;;;;;;;4.70;80.21;100933.03;4831163;29;4595;-80
2022/11/17 03:48:02;;;;;;;;;;;;;;;4.70;80.18;100943.72;4847580;29;4892;-79
2022/11/17 03:50:28;;;;;;;;;;;;;;;4.66;80.44;100932.56;4831061;29;4804;-79
2022/11/17 03:52:55;;;;;;;;;;;;;;;4.69;80.20;100934.06;4829629;29;4791;-79
2022/11/17 03:55:21;;;;;;;;;;;;;;;4.70;80.08;100939.19;4830053;29;4703;-79
2022/11/17 03:57:48;;;;;;;;;;;;;;;4.68;80.20;100924.38;4826563;29;4664;-78
2022/11/17 04:00:15;;;;;;;;;;;;;;;4.66;80.21;100939.72;4836509;29;4910;-79
2022/11/17 04:02:41;;;;;;;;;;;;;;;4.69;80.22;100926.88;4849654;29;4610;-79
2022/11/17 04:05:08;;;;;;;;;;;;;;;4.66;80.34;100931.72;4846384;29;4703;-78
2022/11/17 04:07:35;;;;;;;;;;;;;;;4.66;80.22;100923.72;4827842;29;4761;-79
2022/11/17 04:10:01;;;;;;;;;;;;;;;4.65;80.13;100917.56;4849672;29;4649;-81
2022/11/17 04:18:11;;;;;;;;;;;;;;;4.65;80.43;100922.91;4795260;29;4809;-78
2022/11/17 04:20:38;;;;;;;;;;;;;;;4.68;80.25;100921.72;4793333;29;4634;-78
2022/11/17 04:23:08;;;;;;;;;;;;;;;4.66;80.17;100921.06;4816874;29;4672;-79
2022/11/17 04:31:02;;;;;;;;;;;;;;;4.67;80.20;100912.03;4831882;29;4860;-79
2022/11/17 04:33:29;;;;;;;;;;;;;;;4.65;80.32;100906.88;4830947;29;4849;-79
2022/11/17 04:35:55;;;;;;;;;;;;;;;4.65;80.34;100922.91;4844326;29;4679;-80
2022/11/17 04:38:22;;;;;;;;;;;;;;;4.61;80.34;100910.88;4846578;29;4931;-79
2022/11/17 04:43:29;;;;;;;;;;;;;;;4.66;80.30;100915.72;4845388;29;4804;-79
2022/11/17 04:45:56;;;;;;;;;;;;;;;4.64;80.35;100915.06;4833520;29;4498;-79
2022/11/17 04:48:23;;;;;;;;;;;;;;;4.65;80.24;100916.72;4839786;29;4827;-79
2022/11/17 04:50:49;;;;;;;;;;;;;;;4.65;80.34;100927.41;4848651;29;4625;-80
2022/11/17 04:53:16;;;;;;;;;;;;;;;4.66;80.25;100921.88;4849970;29;4842;-78
2022/11/17 04:55:42;;;;;;;;;;;;;;;4.24;80.18;100851.00;4847432;29;4788;-78
2022/11/17 04:58:09;;;;;;;;;;;;;;;4.63;80.49;100911.56;4852780;29;4926;-77
2022/11/17 05:00:36;;;;;;;;;;;;;;;4.63;80.42;100921.41;4841995;29;4960;-80
2022/11/17 05:03:02;;;;;;;;;;;;;;;4.64;80.45;100910.53;4848999;29;4544;-79
2022/11/17 05:05:29;;;;;;;;;;;;;;;4.64;80.56;100901.72;4849962;29;4472;-80
2022/11/17 05:07:55;;;;;;;;;;;;;;;4.65;80.28;100906.06;4837602;29;4635;-78
2022/11/17 05:13:20;;;;;;;;;;;;;;;4.63;80.25;100905.38;4850463;29;4353;-79
2022/11/17 05:13:21;;;;;;;;;;;;;;;4.65;80.37;100906.88;4859854;29;3826;-79
2022/11/17 05:18:32;;;;;;;;;;;;;;;4.66;80.39;100913.06;4860285;29;4518;-79
2022/11/17 05:20:59;;;;;;;;;;;;;;;4.65;80.19;100911.41;4859977;29;4610;-78
2022/11/17 05:26:10;;;;;;;;;;;;;;;4.65;80.32;100904.22;4861493;29;4662;-79
2022/11/17 05:28:36;;;;;;;;;;;;;;;4.66;80.25;100907.72;4861906;29;4535;-79
2022/11/17 05:31:03;;;;;;;;;;;;;;;4.64;80.33;100907.88;4845389;29;4557;-78
2022/11/17 05:33:29;;;;;;;;;;;;;;;4.65;80.34;100900.72;4867781;29;5033;-79
2022/11/17 05:35:56;;;;;;;;;;;;;;;4.62;80.26;100896.56;4866969;29;4650;-80
2022/11/17 05:38:22;;;;;;;;;;;;;;;4.62;80.38;100893.03;4867411;29;4597;-79
2022/11/17 05:40:49;;;;;;;;;;;;;;;4.63;80.20;100898.22;4867270;29;4736;-79
2022/11/17 05:43:15;;;;;;;;;;;;;;;4.62;80.39;100891.22;4868933;29;3861;-79
2022/11/17 05:45:42;;;;;;;;;;;;;;;4.59;80.38;100880.03;4866144;29;4725;-78
2022/11/17 05:48:09;;;;;;;;;;;;;;;4.63;80.38;100884.03;4848122;29;4630;-80
2022/11/17 05:50:35;;;;;;;;;;;;;;;4.60;80.41;100879.06;4852764;29;4803;-79
2022/11/17 05:53:02;;;;;;;;;;;;;;;4.61;80.52;100886.88;4854356;29;4586;-79
2022/11/17 05:55:28;;;;;;;;;;;;;;;4.59;80.46;100880.91;4852292;29;4881;-79
2022/11/17 05:57:57;;;;;;;;;;;;;;;4.60;80.35;100887.06;4857548;29;4284;-79
2022/11/17 06:00:24;;;;;;;;;;;;;;;4.62;80.33;100883.22;4859897;29;4685;-77
2022/11/17 06:02:50;;;;;;;;;;;;;;;4.63;80.35;100876.03;4846063;29;4676;-79
2022/11/17 06:05:19;;;;;;;;;;;;;;;4.62;80.35;100877.03;4856903;29;4750;-78
2022/11/17 06:07:47;;;;;;;;;;;;;;;4.59;80.53;100875.56;4858035;29;4358;-77
2022/11/17 06:10:14;;;;;;;;;;;;;;;4.65;80.23;100874.03;4860497;29;4673;-79
2022/11/17 06:12:40;;;;;;;;;;;;;;;4.65;80.05;100876.72;4857692;29;4706;-78
2022/11/17 06:15:07;;;;;;;;;;;;;;;4.64;80.16;100883.03;4832483;29;4678;-80
2022/11/17 06:17:34;;;;;;;;;;;;;;;4.63;80.25;100876.03;4829665;29;4511;-78
2022/11/17 06:20:01;;;;;;;;;;;;;;;4.63;80.33;100876.03;4861289;29;4511;-79
2022/11/17 06:22:28;;;;;;;;;;;;;;;4.62;80.41;100872.56;4850572;29;4724;-80
2022/11/17 06:24:54;;;;;;;;;;;;;;;4.64;80.30;100872.34;4849171;29;4593;-79
2022/11/17 06:27:21;;;;;;;;;;;;;;;4.66;80.09;100875.69;4850769;29;4647;-77
2022/11/17 06:29:47;;;;;;;;;;;;;;;4.65;80.20;100877.53;4851803;29;4581;-78
2022/11/17 06:32:14;;;;;;;;;;;;;;;4.67;80.24;100872.00;4846215;29;4514;-81
2022/11/17 06:34:40;;;;;;;;;;;;;;;4.69;79.97;100873.50;4825400;29;4695;-79
2022/11/17 06:37:07;;;;;;;;;;;;;;;4.68;79.94;100879.03;4856074;29;4769;-81
2022/11/17 06:39:34;;;;;;;;;;;;;;;4.64;80.18;100877.69;4836993;29;4458;-78
2022/11/17 06:42:00;;;;;;;;;;;;;;;4.71;80.12;100881.34;4836498;29;4723;-78
2022/11/17 06:44:27;;;;;;;;;;;;;;;4.70;80.06;100882.34;4854786;29;4417;-79
2022/11/17 06:46:53;;;;;;;;;;;;;;;4.68;79.93;100887.03;4851596;29;4876;-78
2022/11/17 06:49:20;;;;;;;;;;;;;;;4.75;79.78;100890.66;4855933;29;4864;-77
2022/11/17 06:51:47;;;;;;;;;;;;;;;4.71;80.00;100894.69;4858119;29;4480;-79
2022/11/17 06:54:13;;;;;;;;;;;;;;;4.72;80.07;100896.34;4854520;29;4628;-78
2022/11/17 06:56:40;;;;;;;;;;;;;;;4.75;79.84;100896.00;4850456;29;4681;-80
2022/11/17 06:59:07;;;;;;;;;;;;;;;4.75;79.85;100888.00;4855308;29;4285;-78
2022/11/17 07:01:33;;;;;;;;;;;;;;;4.72;79.86;100891.00;4858977;29;4519;-77
2022/11/17 07:04:00;;;;;;;;;;;;;;;4.81;79.43;100889.97;4860035;29;4606;-78
2022/11/17 07:06:26;;;;;;;;;;;;;;;4.77;79.72;100891.34;4859541;29;4336;-79
2022/11/17 07:08:53;;;;;;;;;;;;;;;4.77;79.73;100896.66;4853989;29;4184;-78
2022/11/17 07:11:19;;;;;;;;;;;;;;;4.75;79.80;100888.00;4839530;29;4518;-78
2022/11/17 07:13:46;;;;;;;;;;;;;;;4.78;79.72;100893.81;4850070;29;4344;-78
2022/11/17 07:16:13;;;;;;;;;;;;;;;4.76;79.66;100892.31;4854355;29;4574;-79
2022/11/17 07:18:40;;;;;;;;;;;;;;;4.77;79.67;100897.50;4842907;29;4378;-80
2022/11/17 07:21:07;;;;;;;;;;;;;;;4.76;79.71;100892.31;4857610;29;4377;-78
2022/11/17 07:23:33;;;;;;;;;;;;;;;4.78;79.66;100895.66;4839219;29;4453;-79
2022/11/17 07:26:00;;;;;;;;;;;;;;;4.83;79.59;100890.63;4857943;29;4590;-79
2022/11/17 07:28:26;;;;;;;;;;;;;;;4.82;79.55;100885.44;4847471;29;4675;-79
2022/11/17 07:30:53;;;;;;;;;;;;;;;4.81;79.59;100891.81;4848035;29;4356;-79
2022/11/17 07:33:19;;;;;;;;;;;;;;;4.83;79.49;100897.81;4867045;29;4460;-79
2022/11/17 07:35:46;;;;;;;;;;;;;;;4.86;79.54;100895.63;4866400;29;4615;-77
2022/11/17 07:38:12;;;;;;;;;;;;;;;4.88;79.34;100896.28;4846934;29;4802;-77
2022/11/17 07:40:39;;;;;;;;;;;;;;;4.89;79.37;100897.13;4843414;29;4701;-79
2022/11/17 07:43:05;;;;;;;;;;;;;;;4.84;79.45;100908.31;4863691;29;4465;-79
2022/11/17 07:45:32;;;;;;;;;;;;;;;4.88;79.51;100908.78;4849413;29;4434;-78
2022/11/17 07:47:58;;;;;;;;;;;;;;;4.86;79.38;100906.31;4860508;29;4345;-80
2022/11/17 07:50:25;;;;;;;;;;;;;;;4.86;79.38;100911.63;4863119;29;4569;-79
2022/11/17 07:52:52;;;;;;;;;;;;;;;4.95;79.32;100912.44;4849846;29;4554;-79
2022/11/17 07:55:18;;;;;;;;;;;;;;;4.88;79.34;100908.78;4867190;29;4648;-79
2022/11/17 07:57:45;;;;;;;;;;;;;;;4.92;79.31;100913.59;4864243;29;4689;-79
2022/11/17 08:00:11;;;;;;;;;;;;;;;4.89;79.39;100919.28;4850578;29;4534;-79
2022/11/17 08:02:38;;;;;;;;;;;;;;;4.91;79.32;100906.63;4863156;29;4155;-78
2022/11/17 08:05:05;;;;;;;;;;;;;;;4.95;79.19;100904.44;4848465;29;4445;-79
2022/11/17 08:07:31;;;;;;;;;;;;;;;4.91;79.36;100909.28;4850027;29;4620;-78
2022/11/17 08:09:58;;;;;;;;;;;;;;;4.88;79.42;100911.44;4867955;29;4688;-78
2022/11/17 08:12:25;;;;;;;;;;;;;;;4.92;79.36;100905.59;4840714;29;4541;-78
2022/11/17 08:14:51;;;;;;;;;;;;;;;5.04;78.92;100902.53;4855933;29;4282;-77
2022/11/17 08:17:18;;;;;;;;;;;;;;;5.15;78.59;100904.81;4836870;29;4594;-78
2022/11/17 08:19:44;;;;;;;;;;;;;;;5.06;78.74;100908.53;4842495;29;4408;-80
2022/11/17 08:22:22;;;;;;;;;;;;;;;5.11;78.68;100904.31;4855614;29;4685;-79
2022/11/17 08:24:50;;;;;;;;;;;;;;;4.99;79.11;100906.56;4841960;29;4634;-80
2022/11/17 08:27:16;;;;;;;;;;;;;;;4.98;79.25;100910.25;4855292;29;4621;-78
2022/11/17 08:29:43;;;;;;;;;;;;;;;4.99;79.08;100911.06;4841850;29;4416;-79
2022/11/17 08:32:09;;;;;;;;;;;;;;;4.95;79.26;100907.91;4861088;29;4268;-78
2022/11/17 08:34:36;;;;;;;;;;;;;;;4.96;79.35;100911.41;4859072;29;4657;-78
2022/11/17 08:37:03;;;;;;;;;;;;;;;4.96;79.30;100908.75;4847948;29;4487;-78
2022/11/17 08:39:29;;;;;;;;;;;;;;;4.98;79.22;100910.25;4863825;29;4662;-79
2022/11/17 08:41:55;;;;;;;;;;;;;;;5.02;79.11;100913.38;4856190;29;4469;-79
2022/11/17 08:44:22;;;;;;;;;;;;;;;4.99;79.04;100916.41;4865627;29;2063;-79
2022/11/17 08:46:49;;;;;;;;;;;;;;;5.03;79.04;100916.88;4857961;29;2060;-79
2022/11/17 08:49:15;;;;;;;;;;;;;;;4.93;79.52;100923.28;4860481;29;1977;-78
2022/11/17 08:51:42;;;;;;;;;;;;;;;4.96;79.39;100916.75;4873176;29;2398;-79
2022/11/17 08:54:09;;;;;;;;;;;;;;;4.98;79.41;100920.91;4859399;29;1753;-79
2022/11/17 08:56:36;;;;;;;;;;;;;;;5.03;79.26;100916.88;4871763;29;1772;-79
2022/11/17 08:59:03;;;;;;;;;;;;;;;4.99;79.36;100919.91;4855647;29;1809;-79
2022/11/17 09:01:29;;;;;;;;;;;;;;;5.03;79.37;100925.75;4853124;29;2025;-79
2022/11/17 09:03:56;;;;;;;;;;;;;;;5.09;79.09;100918.84;4873206;29;1978;-78
2022/11/17 09:06:22;;;;;;;;;;;;;;;5.05;79.08;100921.03;4859990;29;1838;-79
2022/11/17 09:08:49;;;;;;;;;;;;;;;5.05;79.17;100910.38;4875786;29;1885;-79
2022/11/17 09:11:15;;;;;;;;;;;;;;;5.07;79.23;100905.69;4855846;29;1680;-79
2022/11/17 09:13:44;;;;;;;;;;;;;;;5.06;79.08;100909.38;4853028;29;2033;-78
2022/11/17 09:16:10;;;;;;;;;;;;;;;5.03;79.19;100907.06;4856251;29;1876;-77
2022/11/17 09:18:37;;;;;;;;;;;;;;;5.00;79.51;100913.56;4872808;29;2116;-79
2022/11/17 09:21:04;;;;;;;;;;;;;;;5.03;79.18;100908.88;4875538;29;1553;-78
2022/11/17 09:23:31;;;;;;;;;;;;;;;5.06;79.15;100909.38;4872294;29;1976;-78
2022/11/17 09:25:58;;;;;;;;;;;;;;;5.07;79.17;100910.22;4873035;29;2130;-78
2022/11/17 09:28:25;;;;;;;;;;;;;;;5.05;79.27;100906.88;4873175;29;2013;-78
2022/11/17 09:30:52;;;;;;;;;;;;;;;5.02;79.35;100905.38;4873808;29;1912;-77
2022/11/17 09:33:18;;;;;;;;;;;;;;;5.03;79.26;100909.72;4873093;29;1672;-78
2022/11/17 09:35:45;;;;;;;;;;;;;;;5.03;79.36;100906.19;4875178;29;1979;-79
2022/11/17 09:38:11;;;;;;;;;;;;;;;5.00;79.38;100908.25;4868648;29;1960;-77
2022/11/17 09:40:38;;;;;;;;;;;;;;;5.01;79.42;100909.88;4873673;29;3360;-78
2022/11/17 09:43:04;;;;;;;;;;;;;;;5.04;79.28;100914.06;4871512;29;2311;-77
2022/11/17 09:45:31;;;;;;;;;;;;;;;5.01;79.54;100911.72;4854016;29;1982;-77
2022/11/17 09:47:58;;;;;;;;;;;;;;;5.04;79.18;100908.72;4873205;29;1999;-78
2022/11/17 09:50:24;;;;;;;;;;;;;;;5.03;79.43;100911.53;4857095;29;1778;-77
2022/11/17 09:52:51;;;;;;;;;;;;;;;5.04;79.34;100918.56;4855676;29;1592;-77
2022/11/17 09:55:17;;;;;;;;;;;;;;;5.00;79.31;100913.56;4874408;29;2166;-77
2022/11/17 09:57:44;;;;;;;;;;;;;;;4.98;79.55;100909.41;4873776;29;2591;-77
2022/11/17 10:00:10;;;;;;;;;;;;;;;5.00;79.56;100907.41;4877071;29;1960;-79
2022/11/17 10:02:37;;;;;;;;;;;;;;;5.04;79.56;100907.88;4878072;29;2059;-77
2022/11/17 10:05:04;;;;;;;;;;;;;;;5.11;79.26;100911.50;4863576;29;1999;-78
2022/11/17 10:07:30;;;;;;;;;;;;;;;5.05;79.48;100905.03;4878509;29;2076;-77
2022/11/17 10:09:57;;;;;;;;;;;;;;;5.01;79.51;100909.88;4862450;29;2551;-76
2022/11/17 10:12:23;;;;;;;;;;;;;;;4.99;79.69;100903.88;4868350;29;4418;-78
2022/11/17 10:14:50;;;;;;;;;;;;;;;5.00;79.54;100900.22;4846893;29;4614;-78
2022/11/17 10:17:17;;;;;;;;;;;;;;;5.01;79.46;100903.72;4865907;29;4601;-76
2022/11/17 10:19:44;;;;;;;;;;;;;;;5.04;79.72;100900.72;4861992;29;4609;-76
2022/11/17 10:22:10;;;;;;;;;;;;;;;5.01;79.63;100895.72;4865255;29;4184;-76
2022/11/17 10:24:37;;;;;;;;;;;;;;;5.02;79.66;100897.38;4858067;29;5184;-77
2022/11/17 10:27:03;;;;;;;;;;;;;;;5.03;79.40;100892.84;4841572;29;5006;-75
2022/11/17 10:29:30;;;;;;;;;;;;;;;5.03;79.49;100892.84;4861544;29;4416;-76
2022/11/17 10:31:56;;;;;;;;;;;;;;;5.01;79.54;100893.03;4842673;29;4730;-75
2022/11/17 10:34:23;;;;;;;;;;;;;;;5.02;79.70;100900.03;4859463;29;4298;-75
2022/11/17 10:36:53;;;;;;;;;;;;;;;4.99;79.72;100890.53;4854152;29;4670;-77
2022/11/17 10:39:19;;;;;;;;;;;;;;;5.00;79.74;100897.56;4843765;29;4422;-77
2022/11/17 10:41:49;;;;;;;;;;;;;;;5.02;79.71;100894.69;4859674;29;4747;-77
2022/11/17 10:44:15;;;;;;;;;;;;;;;5.01;79.41;100890.38;4841189;29;4808;-78
2022/11/17 10:46:42;;;;;;;;;;;;;;;4.99;79.96;100889.72;4860650;29;4516;-76
2022/11/17 10:49:08;;;;;;;;;;;;;;;5.05;79.63;100890.84;4856778;29;4615;-78
2022/11/17 10:51:35;;;;;;;;;;;;;;;5.04;79.74;100886.53;4843786;29;4608;-76
2022/11/17 10:54:02;;;;;;;;;;;;;;;5.08;79.42;100886.00;4858024;29;4489;-79
2022/11/17 10:56:28;;;;;;;;;;;;;;;5.04;79.49;100884.69;4856527;29;5192;-79
2022/11/17 10:58:55;;;;;;;;;;;;;;;5.06;79.36;100877.34;4845910;29;4469;-78
2022/11/17 11:01:21;;;;;;;;;;;;;;;5.05;79.47;100888.19;4854245;29;4962;-78
2022/11/17 11:03:48;;;;;;;;;;;;;;;5.04;79.45;100878.53;4859830;29;4565;-78
2022/11/17 11:06:14;;;;;;;;;;;;;;;5.03;79.56;100885.69;4854761;29;4552;-77
2022/11/17 11:08:41;;;;;;;;;;;;;;;5.09;79.51;100866.31;4856698;29;4200;-79
2022/11/17 11:11:07;;;;;;;;;;;;;;;5.05;79.58;100880.16;4836437;29;4564;-79
2022/11/17 11:13:34;;;;;;;;;;;;;;;5.01;79.61;100874.34;4856550;29;4526;-79
2022/11/17 11:16:00;;;;;;;;;;;;;;;5.00;79.74;100880.72;4854047;29;4437;-78
2022/11/17 11:18:27;;;;;;;;;;;;;;;5.01;79.84;100875.19;4855742;29;4370;-77
2022/11/17 11:20:54;;;;;;;;;;;;;;;5.03;79.38;100871.50;4852833;29;4596;-78
2022/11/17 11:23:20;;;;;;;;;;;;;;;5.06;79.81;100871.16;4844645;29;4354;-78
2022/11/17 11:25:48;;;;;;;;;;;;;;;5.04;79.39;100874.00;4855691;29;4503;-79
2022/11/17 11:28:14;;;;;;;;;;;;;;;5.02;79.53;100876.00;4840254;29;4631;-79
2022/11/17 11:30:40;;;;;;;;;;;;;;;5.01;79.50;100874.34;4851209;29;4533;-80
2022/11/17 11:33:07;;;;;;;;;;;;;;;5.00;79.72;100867.38;4843342;29;4609;-80
2022/11/17 11:35:33;;;;;;;;;;;;;;;4.99;79.66;100863.00;4856276;29;5362;-76
2022/11/17 11:38:00;;;;;;;;;;;;;;;5.00;79.53;100854.84;4857372;29;4468;-78
2022/11/17 11:40:27;;;;;;;;;;;;;;;4.98;79.69;100853.34;4855136;29;4604;-78
2022/11/17 11:42:53;;;;;;;;;;;;;;;4.97;79.79;100865.03;4858638;29;4748;-76
2022/11/17 11:45:20;;;;;;;;;;;;;;;5.00;79.66;100854.84;4856462;29;5335;-75
2022/11/17 11:47:46;;;;;;;;;;;;;;;4.98;79.76;100851.50;4857966;29;4479;-76
2022/11/17 11:50:13;;;;;;;;;;;;;;;4.97;79.63;100847.19;4840888;29;4611;-75
2022/11/17 11:52:39;;;;;;;;;;;;;;;4.97;79.88;100847.19;4853024;29;4373;-75
2022/11/17 11:55:06;;;;;;;;;;;;;;;4.97;79.92;100851.69;4857811;29;4355;-75
2022/11/17 11:57:33;;;;;;;;;;;;;;;4.97;79.64;100849.84;4841840;29;4601;-76
2022/11/17 11:59:59;;;;;;;;;;;;;;;4.99;79.74;100845.16;4854679;29;4782;-75
2022/11/17 12:02:26;;;;;;;;;;;;;;;4.98;79.65;100840.00;4854293;29;4388;-77
2022/11/17 12:04:52;;;;;;;;;;;;;;;5.00;79.69;100846.00;4859048;29;4414;-77
2022/11/17 12:07:19;;;;;;;;;;;;;;;5.00;79.47;100846.00;4841821;29;4607;-75
2022/11/17 12:09:46;;;;;;;;;;;;;;;5.04;79.52;100846.47;4860374;29;4119;-77
2022/11/17 12:12:12;;;;;;;;;;;;;;;4.99;79.56;100841.66;4855129;29;4673;-76
2022/11/17 12:14:40;;;;;;;;;;;;;;;4.97;79.80;100839.19;4859293;29;4783;-75
2022/11/17 12:17:06;;;;;;;;;;;;;;;4.98;80.01;100840.84;4857940;29;4334;-76
2022/11/17 12:19:33;;;;;;;;;;;;;;;4.96;79.62;100837.50;4838912;29;4610;-76
2022/11/17 12:21:59;;;;;;;;;;;;;;;4.95;79.77;100835.84;4844657;29;4506;-77
2022/11/17 12:24:27;;;;;;;;;;;;;;;4.95;79.72;100835.03;4856069;29;4492;-75
2022/11/17 12:26:53;;;;;;;;;;;;;;;4.92;79.96;100838.88;4858698;29;4695;-75
2022/11/17 12:29:20;;;;;;;;;;;;;;;4.93;79.75;100837.03;4857291;29;4436;-76
2022/11/17 12:31:47;;;;;;;;;;;;;;;4.92;79.98;100838.03;4859021;29;4416;-76
2022/11/17 12:34:13;;;;;;;;;;;;;;;4.95;79.69;100838.53;4856908;29;4319;-77
2022/11/17 12:36:40;;;;;;;;;;;;;;;4.96;79.74;100826.81;4858801;29;4614;-77
2022/11/17 12:39:07;;;;;;;;;;;;;;;4.98;79.60;100832.00;4842510;29;4385;-77
2022/11/17 12:41:33;;;;;;;;;;;;;;;4.95;79.79;100822.50;4844296;29;4452;-77
2022/11/17 12:44:00;;;;;;;;;;;;;;;4.93;79.86;100827.19;4861090;29;4415;-77
2022/11/17 12:46:27;;;;;;;;;;;;;;;4.94;79.87;100826.19;4861742;29;4481;-79
2022/11/17 12:48:53;;;;;;;;;;;;;;;4.92;79.98;100819.38;4857676;29;5108;-77
2022/11/17 12:51:20;;;;;;;;;;;;;;;4.96;79.75;100828.66;4843368;29;4343;-77
2022/11/17 12:53:46;;;;;;;;;;;;;;;4.94;80.13;100826.19;4858124;29;4598;-78
2022/11/17 12:56:13;;;;;;;;;;;;;;;4.97;79.62;100817.81;4840184;29;4537;-78
2022/11/17 12:58:39;;;;;;;;;;;;;;;4.91;80.05;100828.34;4854660;29;4432;-76
2022/11/17 13:01:06;;;;;;;;;;;;;;;4.92;79.88;100822.84;4847892;29;4288;-79
2022/11/17 13:03:32;;;;;;;;;;;;;;;4.94;79.79;100820.84;4843026;29;4457;-79
2022/11/17 13:06:00;;;;;;;;;;;;;;;4.95;79.78;100819.00;4859050;29;4133;-79
2022/11/17 13:08:26;;;;;;;;;;;;;;;4.93;79.95;100821.00;4860898;29;4890;-77
2022/11/17 13:10:53;;;;;;;;;;;;;;;4.91;79.93;100829.22;4841401;29;4549;-80
2022/11/17 13:13:19;;;;;;;;;;;;;;;4.91;79.91;100820.34;4860496;29;4461;-79
2022/11/17 13:15:46;;;;;;;;;;;;;;;4.92;79.75;100828.19;4848271;29;4386;-78
2022/11/17 13:18:15;;;;;;;;;;;;;;;4.89;79.78;100823.22;4866304;29;4627;-78
2022/11/17 13:20:41;;;;;;;;;;;;;;;4.89;80.00;100830.38;4848471;29;4529;-77
2022/11/17 13:23:08;;;;;;;;;;;;;;;4.90;79.94;100832.03;4871351;29;4463;-78